Iepe, Brazil
Current Conditions -  °F | °C
As of 9:00 PM on Monday 22 Dec 2014 (Local Time) from SBDN Reporting Station
Overcast Overcast  
Wind Chill: 70°   Ceiling: 1700
Heat Index: 70°   Visibility: 6mi
Dew Point: 68°   Wind: 9mph
Humidity: 94%   Direction: 120°ESE
Pressure: 29.85"   Gusts: NA
Location:  22.64°S, 51.11°W
Report Text: SBDN 222300Z 12008KT 9999 SCT010 BKN017 OVC100 21/20 Q1011
Loading
Personal Weather Stations






























Interactive Weather Map New forecast layout! Learn more

10-Day Weather Forecast

Advertisements
Track Severe Weather on mobile